Time;durP1;ratioP1;P1;durP2;ratioP2;P2;SDS_P1;SDS_P2;PMS_P1;PMS_P2;Temp;Humidity;BMP_temperature;BMP_pressure;BME280_temperature;BME280_humidity;BME280_pressure;Samples;Min_cycle;Max_cycle;Signal;HPM_P1;HPM_P2
2024/03/12 00:05:23;;;;;;;2.50;1.50;;;;;;;5.73;100.00;97764.06;15280419;19;20015;-53
2024/03/12 00:10:50;;;;;;;1.25;1.15;;;;;;;5.68;100.00;97763.69;15286838;19;20018;-55
2024/03/12 00:16:17;;;;;;;2.10;1.42;;;;;;;5.64;100.00;97764.94;15282534;19;20022;-55
2024/03/12 00:21:42;;;;;;;2.20;1.30;;;;;;;5.64;100.00;97783.66;15031995;19;5001996;-52
2024/03/12 00:27:10;;;;;;;2.67;1.58;;;;;;;5.58;100.00;97785.09;15287513;19;20327;-52
2024/03/12 00:32:36;;;;;;;2.35;1.50;;;;;;;5.52;100.00;97797.19;15287830;19;20018;-54
2024/03/12 00:38:01;;;;;;;3.00;1.40;;;;;;;5.40;100.00;97804.56;15281379;19;20014;-55
2024/03/12 00:43:28;;;;;;;2.30;1.48;;;;;;;5.27;100.00;97803.16;15286575;19;20022;-56
2024/03/12 00:48:53;;;;;;;1.60;1.50;;;;;;;5.18;100.00;97800.34;15293571;19;20014;-55
2024/03/12 00:54:18;;;;;;;1.42;1.33;;;;;;;5.11;100.00;97807.25;15293282;19;20011;-51
2024/03/12 00:59:47;;;;;;;2.38;1.30;;;;;;;5.07;100.00;97805.84;15282560;19;20061;-53
2024/03/12 01:05:12;;;;;;;2.35;1.33;;;;;;;5.02;100.00;97818.75;15282940;19;20025;-53
2024/03/12 01:10:39;;;;;;;1.70;1.40;;;;;;;4.93;100.00;97815.13;15282033;19;20683;-52
2024/03/12 01:16:06;;;;;;;2.58;1.20;;;;;;;4.84;100.00;97822.16;15288940;19;20018;-55
2024/03/12 01:21:32;;;;;;;1.73;1.30;;;;;;;4.75;100.00;97828.31;15283165;19;20014;-53
2024/03/12 01:26:57;;;;;;;1.65;1.20;;;;;;;4.67;100.00;97822.81;15288171;19;20031;-56
2024/03/12 01:32:24;;;;;;;1.48;1.30;;;;;;;4.57;100.00;97825.50;15302251;19;20010;-55
2024/03/12 01:37:52;;;;;;;1.40;1.30;;;;;;;4.50;100.00;97830.53;15296052;19;20014;-54
2024/03/12 01:43:16;;;;;;;1.65;1.40;;;;;;;4.46;100.00;97815.78;15292202;19;20035;-50
2024/03/12 01:48:44;;;;;;;2.47;1.38;;;;;;;4.43;100.00;97821.38;15304210;19;20047;-56
2024/03/12 01:54:09;;;;;;;1.45;1.35;;;;;;;4.39;100.00;97826.16;15298311;19;20040;-53
2024/03/12 01:59:34;;;;;;;1.65;1.52;;;;;;;4.38;100.00;97836.97;15296618;19;20018;-53
2024/03/12 02:05:02;;;;;;;1.95;1.40;;;;;;;4.34;100.00;97836.41;15295338;19;20029;-55
2024/03/12 02:10:28;;;;;;;1.50;1.25;;;;;;;4.30;100.00;97833.13;15294431;19;20010;-54
2024/03/12 02:15:53;;;;;;;1.60;1.50;;;;;;;4.27;100.00;97841.44;15035835;19;5001178;-54
2024/03/12 02:21:20;;;;;;;1.52;1.30;;;;;;;4.24;100.00;97836.38;15293335;19;20023;-56
2024/03/12 02:26:48;;;;;;;2.90;1.38;;;;;;;4.18;100.00;97844.88;15301381;19;20024;-53
2024/03/12 02:32:13;;;;;;;2.25;1.30;;;;;;;4.14;100.00;97840.81;15297201;19;20530;-55
2024/03/12 02:37:37;;;;;;;1.75;1.27;;;;;;;4.08;100.00;97841.34;14779331;19;10000178;-54
2024/03/12 02:43:06;;;;;;;1.83;1.30;;;;;;;3.99;100.00;97841.19;15290952;19;20356;-56
2024/03/12 02:48:30;;;;;;;1.65;1.30;;;;;;;3.92;100.00;97850.69;15293975;19;20022;-55
2024/03/12 02:53:55;;;;;;;1.40;1.30;;;;;;;3.87;100.00;97847.56;15289877;19;20025;-56
2024/03/12 02:59:23;;;;;;;1.27;1.15;;;;;;;3.80;100.00;97851.75;15292453;19;20024;-54
2024/03/12 03:04:49;;;;;;;1.40;1.20;;;;;;;3.73;100.00;97855.91;15294032;19;20043;-54
2024/03/12 03:10:15;;;;;;;2.15;1.33;;;;;;;3.64;100.00;97853.06;15290959;19;20047;-55
2024/03/12 03:15:42;;;;;;;2.30;1.23;;;;;;;3.55;100.00;97848.53;15291836;19;20534;-54
2024/03/12 03:21:01;;;;;;;1.45;1.30;;;;;;;3.51;100.00;97857.75;15289607;19;20023;-53
2024/03/12 03:26:25;;;;;;;1.30;1.20;;;;;;;3.47;100.00;97861.69;15295835;19;20025;-56
2024/03/12 03:31:53;;;;;;;1.70;1.40;;;;;;;3.45;100.00;97863.63;15294948;19;20460;-56
2024/03/12 03:37:17;;;;;;;1.85;1.40;;;;;;;3.43;100.00;97868.22;15288894;19;20993;-53
2024/03/12 03:42:43;;;;;;;1.77;1.30;;;;;;;3.42;100.00;97871.84;15295815;19;20011;-57
2024/03/12 03:48:10;;;;;;;3.38;1.60;;;;;;;3.35;100.00;97875.03;15295670;19;20018;-56
2024/03/12 03:53:35;;;;;;;1.40;1.30;;;;;;;3.31;100.00;97889.59;15283550;19;20481;-54
2024/03/12 03:59:08;;;;;;;1.58;1.35;;;;;;;3.27;100.00;97892.63;15261230;19;20021;-54
2024/03/12 04:04:37;;;;;;;3.15;1.38;;;;;;;3.20;100.00;97897.63;15294425;19;20018;-56
2024/03/12 04:10:02;;;;;;;1.50;1.33;;;;;;;3.15;100.00;97905.13;15289822;19;20042;-52
2024/03/12 04:15:28;;;;;;;3.25;1.70;;;;;;;3.11;100.00;97906.38;15286675;19;20028;-56
2024/03/12 04:20:55;;;;;;;2.65;1.40;;;;;;;3.07;100.00;97914.59;15289430;19;20054;-53
2024/03/12 04:26:21;;;;;;;1.95;1.50;;;;;;;3.02;100.00;97922.09;15288430;19;20010;-53
2024/03/12 04:31:54;;;;;;;1.67;1.50;;;;;;;2.98;100.00;97920.69;15291821;19;20022;-55
2024/03/12 04:37:22;;;;;;;2.90;1.50;;;;;;;2.92;100.00;97923.84;15284375;19;20501;-55
2024/03/12 04:42:48;;;;;;;3.38;1.60;;;;;;;2.89;100.00;97929.41;15240501;19;20483;-52
2024/03/12 04:48:13;;;;;;;2.08;1.65;;;;;;;2.87;100.00;97929.53;15291350;19;20014;-52
2024/03/12 04:53:40;;;;;;;3.38;1.38;;;;;;;2.83;100.00;97935.22;15280303;19;20017;-60
2024/03/12 04:59:05;;;;;;;2.60;1.70;;;;;;;2.75;100.00;97941.16;15287349;19;20289;-57
2024/03/12 05:04:30;;;;;;;2.50;1.58;;;;;;;2.73;100.00;97938.66;15291767;19;20025;-53
2024/03/12 05:09:59;;;;;;;2.50;1.73;;;;;;;2.73;100.00;97959.91;15296403;19;20015;-54
2024/03/12 05:15:24;;;;;;;2.92;1.88;;;;;;;2.67;100.00;97960.41;15298531;19;20029;-54
2024/03/12 05:20:50;;;;;;;3.55;1.70;;;;;;;2.61;100.00;97971.53;15295576;19;20078;-56
2024/03/12 05:26:18;;;;;;;2.67;1.80;;;;;;;2.51;100.00;97982.06;15300470;19;20042;-57
2024/03/12 05:31:43;;;;;;;2.88;1.98;;;;;;;2.43;100.00;97990.63;15295515;19;20081;-55
2024/03/12 05:37:15;;;;;;;3.25;2.10;;;;;;;2.33;100.00;97984.34;15298399;19;20029;-56
2024/03/12 05:48:32;;;;;;;3.17;1.83;;;;;;;2.21;100.00;97991.47;15298122;19;20007;-56
2024/03/12 05:53:58;;;;;;;2.50;1.83;;;;;;;2.21;100.00;97993.28;15291682;19;20024;-55
2024/03/12 05:59:25;;;;;;;2.55;1.90;;;;;;;2.20;100.00;97994.22;15294941;19;20014;-56
2024/03/12 06:04:52;;;;;;;2.53;2.00;;;;;;;2.26;100.00;98007.06;15295503;19;20014;-54
2024/03/12 06:10:17;;;;;;;3.53;1.90;;;;;;;2.32;100.00;98009.22;15298689;19;20470;-55
2024/03/12 06:15:44;;;;;;;2.92;1.90;;;;;;;2.38;100.00;98018.53;15296932;19;20529;-53
2024/03/12 06:21:09;;;;;;;2.45;1.75;;;;;;;2.46;100.00;98021.47;15298465;19;20355;-53
2024/03/12 06:26:37;;;;;;;1.92;1.73;;;;;;;2.56;100.00;98033.06;15295200;19;20591;-53
2024/03/12 06:31:57;;;;;;;1.88;1.67;;;;;;;2.64;100.00;98035.13;15321448;19;20514;-58
2024/03/12 06:37:25;;;;;;;2.33;1.80;;;;;;;2.74;100.00;98045.88;15291569;19;20501;-57
2024/03/12 06:42:50;;;;;;;3.42;1.80;;;;;;;2.87;100.00;98048.44;15296728;19;20019;-56
2024/03/12 06:48:19;;;;;;;2.03;1.70;;;;;;;3.11;100.00;98058.09;15296900;19;20018;-54
2024/03/12 06:53:44;;;;;;;4.13;1.98;;;;;;;3.44;100.00;98059.81;15287788;19;20023;-53
2024/03/12 06:59:10;;;;;;;3.13;2.00;;;;;;;3.77;100.00;98059.84;15294087;19;20729;-55
2024/03/12 07:04:43;;;;;;;2.45;1.85;;;;;;;3.98;100.00;98066.03;15290743;19;20082;-56
2024/03/12 07:10:11;;;;;;;3.55;1.77;;;;;;;4.16;100.00;98066.31;15293507;19;20018;-56
2024/03/12 07:15:36;;;;;;;3.20;1.73;;;;;;;4.30;100.00;98067.81;15287627;19;20499;-57
2024/03/12 07:21:06;;;;;;;2.75;1.50;;;;;;;4.46;100.00;98071.84;15294051;19;20089;-54
2024/03/12 07:26:30;;;;;;;1.90;1.60;;;;;;;4.61;100.00;98065.19;15288953;19;20011;-56
2024/03/12 07:31:55;;;;;;;1.80;1.70;;;;;;;4.76;100.00;98072.88;15294375;19;20022;-56
2024/03/12 07:37:22;;;;;;;3.78;1.73;;;;;;;4.89;100.00;98076.13;15289501;19;20491;-55
2024/03/12 07:42:47;;;;;;;1.95;1.33;;;;;;;5.01;100.00;98081.38;15294728;19;20018;-54
2024/03/12 07:48:12;;;;;;;3.25;1.30;;;;;;;5.11;100.00;98082.28;15293284;19;20354;-54
2024/03/12 07:53:40;;;;;;;2.50;1.45;;;;;;;5.18;100.00;98082.56;15290424;19;20358;-56
2024/03/12 07:59:05;;;;;;;1.88;1.33;;;;;;;5.27;100.00;98086.25;15287040;19;20082;-52
2024/03/12 08:04:31;;;;;;;2.28;1.50;;;;;;;5.36;100.00;98096.13;15287633;19;20014;-55
2024/03/12 08:09:58;;;;;;;1.58;1.48;;;;;;;5.44;100.00;98098.97;15284190;19;20094;-56
2024/03/12 08:15:23;;;;;;;2.40;1.60;;;;;;;5.50;100.00;98098.41;15287141;19;20018;-56
2024/03/12 08:20:47;;;;;;;2.03;1.50;;;;;;;5.60;100.00;98097.56;15288559;19;20018;-53
2024/03/12 08:26:14;;;;;;;2.60;1.80;;;;;;;5.65;100.00;98100.69;15285279;19;20043;-52
2024/03/12 08:31:40;;;;;;;3.95;2.00;;;;;;;5.76;100.00;98103.25;15290825;19;20025;-55
2024/03/12 08:37:17;;;;;;;3.58;1.92;;;;;;;5.89;100.00;98100.28;15285386;19;20018;-55
2024/03/12 08:42:44;;;;;;;2.90;1.60;;;;;;;6.03;100.00;98099.09;15282320;19;20348;-54
2024/03/12 08:48:21;;;;;;;3.13;1.95;;;;;;;6.23;100.00;98109.78;15290950;19;20020;-55
2024/03/12 08:53:46;;;;;;;2.90;1.60;;;;;;;6.37;100.00;98112.03;15279761;19;20482;-54
2024/03/12 08:59:15;;;;;;;1.88;1.50;;;;;;;6.54;100.00;98117.63;15285930;19;20526;-52
2024/03/12 09:04:40;;;;;;;3.17;1.60;;;;;;;6.65;100.00;98121.97;15292626;19;20024;-55
2024/03/12 09:10:08;;;;;;;2.65;1.60;;;;;;;6.78;100.00;98119.84;15287635;19;20050;-54
2024/03/12 09:15:35;;;;;;;3.67;1.75;;;;;;;6.91;100.00;98128.41;15285507;19;20939;-55
2024/03/12 09:21:01;;;;;;;4.38;1.80;;;;;;;7.07;100.00;98130.47;15286891;19;20019;-56
2024/03/12 09:26:26;;;;;;;4.53;2.05;;;;;;;7.25;100.00;98127.88;15282198;19;20018;-51
2024/03/12 09:32:00;;;;;;;3.88;2.30;;;;;;;7.51;100.00;98127.19;15287280;19;20040;-52
2024/03/12 09:37:27;;;;;;;4.18;2.00;;;;;;;7.78;100.00;98132.69;15283643;19;20899;-52
2024/03/12 09:42:56;;;;;;;2.33;1.60;;;;;;;8.01;100.00;98133.94;15287457;19;20022;-51
2024/03/12 09:48:24;;;;;;;2.95;1.80;;;;;;;8.26;100.00;98150.28;15287482;19;20462;-54
2024/03/12 09:53:49;;;;;;;3.78;1.75;;;;;;;8.46;100.00;98134.00;15291522;19;20025;-55
2024/03/12 09:59:14;;;;;;;2.22;1.77;;;;;;;8.66;100.00;98136.53;15299186;19;20348;-55
2024/03/12 10:04:41;;;;;;;2.53;1.75;;;;;;;8.88;100.00;98137.88;15291256;19;20014;-54
2024/03/12 10:16:13;;;;;;;1.67;1.58;;;;;;;9.21;100.00;98147.00;15299533;19;20003;-52
2024/03/12 10:21:41;;;;;;;2.20;1.52;;;;;;;9.47;100.00;98139.88;15298669;19;20024;-51
2024/03/12 10:27:11;;;;;;;2.45;1.90;;;;;;;9.63;100.00;98150.72;15295261;19;20014;-50
2024/03/12 10:32:36;;;;;;;2.78;2.10;;;;;;;9.63;100.00;98141.78;15291037;19;20352;-51
2024/03/12 10:38:04;;;;;;;3.38;1.88;;;;;;;9.67;100.00;98141.31;15293655;19;20313;-51
2024/03/12 10:43:31;;;;;;;4.43;1.88;;;;;;;9.69;100.00;98149.22;15289497;19;20481;-55
2024/03/12 10:48:56;;;;;;;2.65;1.92;;;;;;;9.87;100.00;98152.66;15295061;19;20098;-53
2024/03/12 10:54:24;;;;;;;2.50;1.70;;;;;;;9.98;100.00;98154.19;15289355;19;20022;-51
2024/03/12 10:59:53;;;;;;;2.78;1.80;;;;;;;10.01;100.00;98153.84;15297509;19;20027;-53
2024/03/12 11:05:22;;;;;;;2.80;1.90;;;;;;;10.05;100.00;98142.75;15292752;19;20021;-51
2024/03/12 11:10:51;;;;;;;3.50;1.90;;;;;;;10.06;100.00;98141.75;15294348;19;20026;-50
2024/03/12 11:16:18;;;;;;;2.10;1.90;;;;;;;10.01;100.00;98158.41;15293259;19;20035;-51
2024/03/12 11:21:42;;;;;;;5.70;2.10;;;;;;;10.02;100.00;98157.41;15291435;19;20556;-51
2024/03/12 11:27:20;;;;;;;2.33;2.05;;;;;;;10.07;100.00;98146.97;15288023;19;20486;-54
2024/03/12 11:32:53;;;;;;;2.35;2.00;;;;;;;10.14;100.00;98150.69;15284538;19;20015;-53
2024/03/12 11:38:18;;;;;;;2.95;2.00;;;;;;;10.11;100.00;98152.88;15290553;19;20027;-51
2024/03/12 11:43:47;;;;;;;3.13;2.00;;;;;;;10.04;100.00;98158.09;15286776;19;20096;-54
2024/03/12 11:49:36;;;;;;;2.08;1.88;;;;;;;9.98;100.00;98153.34;15290694;19;20015;-54
2024/03/12 11:55:03;;;;;;;2.70;1.98;;;;;;;9.88;100.00;98148.09;15291450;19;20018;-51
2024/03/12 12:00:35;;;;;;;2.63;2.17;;;;;;;9.79;100.00;98149.94;15289908;19;20363;-50
2024/03/12 12:05:59;;;;;;;2.90;2.03;;;;;;;9.78;100.00;98155.47;15287445;19;20073;-51
2024/03/12 12:11:25;;;;;;;2.55;2.10;;;;;;;9.79;100.00;98151.78;15287249;19;20014;-52
2024/03/12 12:16:53;;;;;;;2.72;2.30;;;;;;;9.77;100.00;98151.94;15287504;19;20014;-51
2024/03/12 12:22:21;;;;;;;3.88;2.20;;;;;;;9.80;100.00;98158.84;15291631;19;20482;-51
2024/03/12 12:27:46;;;;;;;3.17;2.10;;;;;;;9.78;100.00;98152.78;15288111;19;20010;-54
2024/03/12 12:33:20;;;;;;;4.93;2.00;;;;;;;9.78;100.00;98153.63;15289546;19;20121;-53
2024/03/12 12:38:46;;;;;;;3.88;2.22;;;;;;;9.87;100.00;98157.19;15284687;19;20087;-53
2024/03/12 12:44:21;;;;;;;3.72;2.35;;;;;;;9.93;100.00;98158.41;15280274;19;20021;-50
2024/03/12 12:49:54;;;;;;;2.80;2.28;;;;;;;9.99;100.00;98150.50;15287403;19;20022;-51
2024/03/12 12:55:18;;;;;;;3.35;2.13;;;;;;;10.09;100.00;98150.34;15283792;19;20501;-52
2024/03/12 13:00:45;;;;;;;2.63;2.40;;;;;;;10.15;100.00;98152.38;15285443;19;20755;-51
2024/03/12 13:06:25;;;;;;;2.83;2.35;;;;;;;10.13;100.00;98151.72;15286592;19;20030;-81
2024/03/12 13:11:53;;;;;;;3.00;2.70;;;;;;;10.05;100.00;98165.16;15311273;19;20043;-79
2024/03/12 13:17:22;;;;;;;3.13;2.53;;;;;;;9.99;100.00;98166.66;15304257;19;20021;-80
2024/03/12 13:22:51;;;;;;;3.03;2.72;;;;;;;9.96;100.00;98166.13;15311660;19;20035;-79
2024/03/12 13:28:17;;;;;;;2.65;2.45;;;;;;;9.96;100.00;98171.50;15326735;19;20011;-80
2024/03/12 13:33:42;;;;;;;3.53;3.22;;;;;;;9.93;100.00;98161.09;15338734;19;20026;-79
2024/03/12 13:39:12;;;;;;;3.92;3.10;;;;;;;9.87;100.00;98174.16;15325953;19;20808;-80
2024/03/12 13:44:37;;;;;;;3.40;3.10;;;;;;;9.86;100.00;98169.78;15317860;19;20669;-81
2024/03/12 13:50:05;;;;;;;4.25;3.05;;;;;;;9.90;100.00;98169.47;15325522;19;20007;-80
2024/03/12 13:55:32;;;;;;;4.07;3.30;;;;;;;9.90;100.00;98177.53;15319535;19;20120;-79
2024/03/12 14:00:57;;;;;;;3.72;3.13;;;;;;;9.86;100.00;98175.16;15314130;19;20061;-83
2024/03/12 14:06:23;;;;;;;5.00;3.63;;;;;;;9.81;100.00;98174.84;15311633;19;20049;-79
2024/03/12 14:11:50;;;;;;;3.55;3.25;;;;;;;9.77;100.00;98189.59;15308050;19;20468;-84
2024/03/12 14:17:17;;;;;;;4.47;3.92;;;;;;;9.77;100.00;98184.22;15305477;19;20487;-83
2024/03/12 14:22:43;;;;;;;3.90;3.50;;;;;;;9.84;100.00;98190.63;15308772;19;20339;-84
2024/03/12 14:28:12;;;;;;;3.20;2.88;;;;;;;10.07;100.00;98190.03;15296953;19;20010;-75
2024/03/12 14:33:37;;;;;;;4.10;3.67;;;;;;;10.26;100.00;98190.78;15305008;19;20010;-76
2024/03/12 14:39:07;;;;;;;3.70;3.25;;;;;;;10.30;100.00;98184.03;15295271;19;20015;-75
2024/03/12 14:44:34;;;;;;;3.83;3.42;;;;;;;10.32;100.00;98182.00;15298528;19;20021;-75
2024/03/12 14:49:59;;;;;;;4.97;3.30;;;;;;;10.36;100.00;98183.38;15297762;19;20032;-73
2024/03/12 14:55:24;;;;;;;4.57;3.15;;;;;;;10.35;100.00;98184.38;15290375;19;20102;-76
2024/03/12 15:00:51;;;;;;;3.30;2.83;;;;;;;10.31;100.00;98185.72;15298007;19;20369;-75
2024/03/12 15:06:18;;;;;;;3.50;2.88;;;;;;;10.27;100.00;98185.22;15286306;19;20094;-74
2024/03/12 15:11:46;;;;;;;3.38;3.08;;;;;;;10.15;100.00;98182.00;15294565;19;20011;-74
2024/03/12 15:17:15;;;;;;;3.85;3.42;;;;;;;10.10;100.00;98189.72;15292574;19;20138;-74
2024/03/12 15:22:45;;;;;;;4.00;3.20;;;;;;;10.05;100.00;98188.53;15296661;19;20014;-74
2024/03/12 15:28:13;;;;;;;3.85;3.25;;;;;;;10.01;100.00;98188.84;15291660;19;20031;-76
2024/03/12 15:33:41;;;;;;;9.35;3.72;;;;;;;9.98;100.00;98191.03;15294812;19;20492;-75
2024/03/12 15:39:06;;;;;;;3.80;3.00;;;;;;;10.02;100.00;98193.22;15285059;19;20021;-75
2024/03/12 15:44:31;;;;;;;3.50;3.20;;;;;;;10.37;100.00;98193.16;15290931;19;20018;-75
2024/03/12 15:49:58;;;;;;;7.38;3.45;;;;;;;10.41;100.00;98196.38;15305406;19;20024;-77
2024/03/12 15:55:25;;;;;;;3.90;3.60;;;;;;;10.11;100.00;98212.94;15311830;19;20022;-77
2024/03/12 16:00:51;;;;;;;3.97;3.47;;;;;;;9.96;100.00;98201.09;15304959;19;20015;-77
2024/03/12 16:06:20;;;;;;;3.72;3.42;;;;;;;9.85;100.00;98203.09;15299876;19;20015;-80
2024/03/12 16:11:44;;;;;;;4.30;3.33;;;;;;;9.66;100.00;98209.56;15274172;19;20007;-81
2024/03/12 16:17:10;;;;;;;3.60;3.30;;;;;;;9.51;100.00;98212.00;15316077;19;20018;-82
2024/03/12 16:22:37;;;;;;;4.15;3.72;;;;;;;9.44;100.00;98216.34;15317617;19;20094;-81
2024/03/12 16:28:03;;;;;;;3.90;3.50;;;;;;;9.36;100.00;98210.91;15314583;19;20014;-81
2024/03/12 16:33:33;;;;;;;5.43;3.75;;;;;;;9.26;100.00;98221.78;15327906;19;20022;-81
2024/03/12 16:39:05;;;;;;;4.55;4.05;;;;;;;9.15;100.00;98217.50;15326602;19;20022;-84
2024/03/12 16:44:31;;;;;;;5.17;4.27;;;;;;;9.08;100.00;98219.13;15310538;19;20033;-83
2024/03/12 16:49:59;;;;;;;5.53;4.28;;;;;;;9.00;100.00;98229.78;15321959;19;20276;-81
2024/03/12 16:55:28;;;;;;;5.70;4.00;;;;;;;8.93;100.00;98237.66;15314306;19;20021;-84
2024/03/12 17:00:58;;;;;;;5.40;3.90;;;;;;;8.81;100.00;98237.06;15337947;19;20125;-85
2024/03/12 17:06:25;;;;;;;7.05;4.30;;;;;;;8.73;100.00;98245.88;15325933;19;20038;-82
2024/03/12 17:12:00;;;;;;;4.78;4.28;;;;;;;8.68;100.00;98248.19;15064351;19;5002240;-83
2024/03/12 17:17:31;;;;;;;4.85;4.35;;;;;;;8.67;100.00;98248.31;15319107;19;20481;-82
2024/03/12 17:23:00;;;;;;;6.93;4.37;;;;;;;8.63;100.00;98254.03;15323106;19;20031;-79
2024/03/12 17:28:28;;;;;;;4.47;4.07;;;;;;;8.62;100.00;98260.38;15316694;19;20813;-80
2024/03/12 17:33:56;;;;;;;5.25;4.68;;;;;;;8.59;100.00;98260.69;15311987;19;20031;-82
2024/03/12 17:39:22;;;;;;;5.72;4.80;;;;;;;8.55;100.00;98269.19;15310380;19;20031;-82
2024/03/12 17:44:53;;;;;;;5.00;4.50;;;;;;;8.51;100.00;98271.34;15309034;19;20600;-81
2024/03/12 17:50:20;;;;;;;5.32;4.75;;;;;;;8.46;100.00;98276.28;15054426;19;5001488;-82
2024/03/12 17:55:47;;;;;;;5.80;4.95;;;;;;;8.42;100.00;98275.75;15307236;19;20421;-80
2024/03/12 18:01:15;;;;;;;5.70;4.88;;;;;;;8.36;100.00;98275.50;15309108;19;20035;-81
2024/03/12 18:06:44;;;;;;;5.40;4.53;;;;;;;8.33;100.00;98282.88;15338947;19;20048;-82
2024/03/12 18:12:09;;;;;;;5.75;4.30;;;;;;;8.31;100.00;98290.22;15367644;19;20036;-82
2024/03/12 18:17:37;;;;;;;6.00;4.38;;;;;;;8.32;100.00;98291.91;15360185;19;20018;-83
2024/03/12 18:23:01;;;;;;;4.57;4.13;;;;;;;8.35;100.00;98300.66;15357673;19;20019;-82
2024/03/12 18:28:28;;;;;;;5.18;4.30;;;;;;;8.37;100.00;98299.50;15359819;19;20018;-82
2024/03/12 18:33:56;;;;;;;4.88;3.85;;;;;;;8.36;100.00;98303.19;15358678;19;20006;-82
2024/03/12 18:39:21;;;;;;;6.32;4.70;;;;;;;8.30;100.00;98307.31;15362315;19;20002;-84
2024/03/12 18:44:48;;;;;;;7.40;4.35;;;;;;;8.32;100.00;98299.13;15342746;19;20362;-82
2024/03/12 18:50:17;;;;;;;5.20;4.47;;;;;;;8.34;100.00;98310.56;15369716;19;20042;-80
2024/03/12 18:55:44;;;;;;;5.03;4.50;;;;;;;8.32;100.00;98312.56;15366361;19;20018;-81
2024/03/12 19:01:11;;;;;;;6.20;5.57;;;;;;;8.31;100.00;98317.06;15363271;19;20011;-79
2024/03/12 19:06:41;;;;;;;6.18;5.43;;;;;;;8.33;100.00;98314.25;15357697;19;20040;-81
2024/03/12 19:12:10;;;;;;;6.50;5.78;;;;;;;8.29;100.00;98315.53;14849790;19;10000355;-80
2024/03/12 19:17:37;;;;;;;6.47;5.85;;;;;;;8.32;100.00;98318.75;15104393;19;5001531;-80
2024/03/12 19:23:06;;;;;;;6.30;5.70;;;;;;;8.32;100.00;98328.66;15349898;19;20018;-82
2024/03/12 19:28:30;;;;;;;6.22;5.53;;;;;;;8.30;100.00;98326.09;15357878;19;20018;-80
2024/03/12 19:33:57;;;;;;;6.88;6.15;;;;;;;8.29;100.00;98324.41;15366591;19;20014;-81
2024/03/12 19:39:26;;;;;;;7.35;6.50;;;;;;;8.26;100.00;98334.59;15361682;19;20017;-80
2024/03/12 19:44:52;;;;;;;6.53;5.88;;;;;;;8.23;100.00;98334.94;15365677;19;20018;-82
2024/03/12 19:50:24;;;;;;;7.43;5.80;;;;;;;8.17;100.00;98331.00;15368238;19;20014;-80
2024/03/12 19:55:54;;;;;;;8.32;6.10;;;;;;;8.13;100.00;98329.59;15354610;19;20006;-79
2024/03/12 20:01:21;;;;;;;8.35;6.50;;;;;;;8.08;100.00;98339.91;15356245;19;20021;-81
2024/03/12 20:06:47;;;;;;;9.98;6.38;;;;;;;7.95;100.00;98342.94;15356625;19;20045;-79
2024/03/12 20:12:16;;;;;;;9.00;7.03;;;;;;;7.89;100.00;98349.72;15356716;19;20021;-82
2024/03/12 20:17:47;;;;;;;6.93;5.88;;;;;;;7.85;100.00;98353.69;15346180;19;20018;-81
2024/03/12 20:23:16;;;;;;;7.25;6.10;;;;;;;7.87;100.00;98351.72;15302683;19;20449;-74
2024/03/12 20:28:44;;;;;;;6.50;5.90;;;;;;;7.90;100.00;98353.25;15290365;19;20018;-76
2024/03/12 20:34:12;;;;;;;6.63;5.50;;;;;;;7.90;100.00;98351.41;15301921;19;20022;-76
2024/03/12 20:40:09;;;;;;;6.20;5.60;;;;;;;7.86;100.00;98352.69;15289887;19;20018;-75
2024/03/12 20:45:51;;;;;;;6.57;5.95;;;;;;;7.83;100.00;98355.66;15297450;19;20077;-74
2024/03/12 20:51:21;;;;;;;7.43;6.03;;;;;;;7.82;100.00;98352.16;15296691;19;20022;-74
2024/03/12 20:56:45;;;;;;;6.88;5.85;;;;;;;7.82;100.00;98354.00;15293478;19;20871;-75
2024/03/12 21:02:19;;;;;;;6.88;5.30;;;;;;;7.84;100.00;98362.72;15285285;19;20054;-74
2024/03/12 21:07:51;;;;;;;8.52;6.57;;;;;;;7.82;100.00;98356.69;15292014;19;20011;-74
2024/03/12 21:13:17;;;;;;;7.22;5.95;;;;;;;7.82;100.00;98356.69;15304798;19;20036;-76
2024/03/12 21:18:45;;;;;;;6.88;6.15;;;;;;;7.81;100.00;98363.03;15287748;19;20030;-76
2024/03/12 21:24:10;;;;;;;7.38;6.28;;;;;;;7.78;100.00;98357.94;15280976;19;20477;-76
2024/03/12 21:29:35;;;;;;;6.57;5.88;;;;;;;7.76;100.00;98355.38;15289667;19;20010;-76
2024/03/12 21:35:04;;;;;;;6.82;6.13;;;;;;;7.78;100.00;98356.09;15282322;19;20014;-75
2024/03/12 21:40:32;;;;;;;6.63;6.00;;;;;;;7.76;100.00;98359.94;15293620;19;20025;-75
2024/03/12 21:45:57;;;;;;;7.47;5.80;;;;;;;7.76;100.00;98360.75;15286740;19;20022;-75
2024/03/12 21:51:26;;;;;;;6.25;5.50;;;;;;;7.74;100.00;98351.16;15299660;19;20018;-75
2024/03/12 21:56:52;;;;;;;7.10;5.30;;;;;;;7.71;100.00;98347.78;15299050;19;20074;-75
2024/03/12 22:02:16;;;;;;;6.57;5.88;;;;;;;7.70;100.00;98351.47;15296555;19;20635;-75
2024/03/12 22:07:46;;;;;;;6.75;5.57;;;;;;;7.67;100.00;98362.50;15289000;19;20837;-74
2024/03/12 22:13:11;;;;;;;6.05;5.45;;;;;;;7.66;100.00;98357.25;15299472;19;20022;-74
2024/03/12 22:18:49;;;;;;;7.55;5.70;;;;;;;7.65;100.00;98359.09;15299850;19;20010;-75
2024/03/12 22:24:22;;;;;;;6.25;5.65;;;;;;;7.61;100.00;98354.19;15296061;19;20019;-77
2024/03/12 22:29:47;;;;;;;6.70;6.00;;;;;;;7.58;100.00;98354.47;15290350;19;20028;-75
2024/03/12 22:35:13;;;;;;;6.65;5.75;;;;;;;7.55;100.00;98351.06;15296152;19;20027;-74
2024/03/12 22:40:42;;;;;;;6.57;5.88;;;;;;;7.52;100.00;98348.69;15300476;19;20014;-75
2024/03/12 22:46:10;;;;;;;7.38;5.47;;;;;;;7.50;100.00;98355.16;15296527;19;20090;-75
2024/03/12 22:51:37;;;;;;;6.45;5.60;;;;;;;7.50;100.00;98365.91;15296518;19;20019;-75
2024/03/12 22:57:06;;;;;;;6.13;5.38;;;;;;;7.52;100.00;98361.25;15294471;19;20011;-75
2024/03/12 23:02:32;;;;;;;6.15;5.55;;;;;;;7.52;100.00;98353.19;15291257;19;20016;-75
2024/03/12 23:07:57;;;;;;;5.55;5.00;;;;;;;7.53;100.00;98350.34;15294314;19;20090;-75
2024/03/12 23:13:25;;;;;;;8.38;5.35;;;;;;;7.51;100.00;98343.47;15297334;19;20022;-74
2024/03/12 23:18:52;;;;;;;6.07;5.45;;;;;;;7.48;100.00;98351.78;15291921;19;20081;-74
2024/03/12 23:24:18;;;;;;;5.85;5.22;;;;;;;7.46;100.00;98351.09;15289315;19;20022;-75
2024/03/12 23:29:46;;;;;;;6.50;5.75;;;;;;;7.45;100.00;98352.09;15290303;19;20010;-74
2024/03/12 23:35:12;;;;;;;6.32;5.40;;;;;;;7.41;100.00;98340.78;15286241;19;20026;-75
2024/03/12 23:40:37;;;;;;;7.68;5.57;;;;;;;7.43;100.00;98346.03;15293148;19;20086;-75
2024/03/12 23:46:05;;;;;;;7.25;5.68;;;;;;;7.37;100.00;98340.22;15290631;19;20354;-75
2024/03/12 23:51:30;;;;;;;6.95;5.85;;;;;;;7.36;100.00;98337.69;15288166;19;20082;-75
2024/03/12 23:56:55;;;;;;;6.38;5.53;;;;;;;7.34;100.00;98340.53;15031454;19;5001461;-75
